createdAt,value
2023-04-24T00:01:30.331Z,23.97
2023-04-24T00:04:36.510Z,22.96
2023-04-24T00:07:45.291Z,21.27
2023-04-24T00:10:51.397Z,23.01
2023-04-24T00:13:58.363Z,22.14
2023-04-24T00:17:07.684Z,23.30
2023-04-24T00:20:15.984Z,23.10
2023-04-24T00:23:22.095Z,23.51
2023-04-24T00:26:28.941Z,23.97
2023-04-24T00:29:35.016Z,24.79
2023-04-24T00:32:44.572Z,26.06
2023-04-24T00:35:50.945Z,27.77
2023-04-24T00:38:57.709Z,28.89
2023-04-24T00:42:03.894Z,29.40
2023-04-24T00:45:12.249Z,30.67
2023-04-24T00:48:21.012Z,31.77
2023-04-24T00:51:28.708Z,32.35
2023-04-24T00:54:34.636Z,32.14
2023-04-24T00:57:41.712Z,31.89
2023-04-24T01:00:49.161Z,31.64
2023-04-24T01:04:01.760Z,29.58
2023-04-24T01:07:11.959Z,27.56
2023-04-24T01:10:21.736Z,24.61
2023-04-24T01:13:28.175Z,25.34
2023-04-24T01:16:34.978Z,25.02
2023-04-24T01:19:46.270Z,21.52
2023-04-24T01:22:56.161Z,21.84
2023-04-24T01:26:03.148Z,22.86
2023-04-24T01:29:11.761Z,22.46
2023-04-24T01:32:18.562Z,23.81
2023-04-24T01:35:25.610Z,23.94
2023-04-24T01:38:34.195Z,24.77
2023-04-24T01:41:40.972Z,22.88
2023-04-24T01:44:47.835Z,22.55
2023-04-24T01:47:56.354Z,23.12
2023-04-24T01:51:04.112Z,22.65
2023-04-24T01:54:13.445Z,23.78
2023-04-24T01:57:21.100Z,23.02
2023-04-24T02:00:28.614Z,23.16
2023-04-24T02:03:34.851Z,23.84
2023-04-24T02:06:41.936Z,24.23
2023-04-24T02:09:50.996Z,23.26
2023-04-24T02:12:57.854Z,21.96
2023-04-24T02:16:04.146Z,20.90
2023-04-24T02:19:11.281Z,20.33
2023-04-24T02:22:17.209Z,20.35
2023-04-24T02:25:27.341Z,19.57
2023-04-24T02:28:35.090Z,18.20
2023-04-24T02:31:41.920Z,16.53
2023-04-24T02:34:48.203Z,16.30
2023-04-24T02:37:55.363Z,17.03
2023-04-24T02:41:07.454Z,16.00
2023-04-24T02:44:14.269Z,16.01
2023-04-24T02:47:20.463Z,16.14
2023-04-24T02:50:30.012Z,16.08
2023-04-24T02:53:35.958Z,15.55
2023-04-24T02:56:45.778Z,15.03
2023-04-24T02:59:51.893Z,15.59
2023-04-24T03:02:58.991Z,15.14
2023-04-24T03:06:07.042Z,15.39
2023-04-24T03:09:14.017Z,15.67
2023-04-24T03:12:25.059Z,16.02
2023-04-24T03:15:31.960Z,15.70
2023-04-24T03:18:38.034Z,16.18
2023-04-24T03:21:46.567Z,16.76
2023-04-24T03:24:52.743Z,16.65
2023-04-24T03:28:02.966Z,17.01
2023-04-24T03:31:18.366Z,17.95
2023-04-24T03:34:25.653Z,18.11
2023-04-24T03:37:32.099Z,17.97
2023-04-24T03:40:59.128Z,18.48
2023-04-24T03:44:30.331Z,17.77
2023-04-24T03:47:37.154Z,17.56
2023-04-24T03:50:45.286Z,17.64
2023-04-24T03:53:53.828Z,17.99
2023-04-24T03:57:02.789Z,17.52
2023-04-24T04:00:17.039Z,17.66
2023-04-24T04:03:28.245Z,17.51
2023-04-24T04:06:35.160Z,18.41
2023-04-24T04:09:41.677Z,18.51
2023-04-24T04:12:48.830Z,19.24
2023-04-24T04:15:57.535Z,18.41
2023-04-24T04:19:04.641Z,17.76
2023-04-24T04:22:10.728Z,18.25
2023-04-24T04:25:26.938Z,17.64
2023-04-24T04:28:34.428Z,18.52
2023-04-24T04:31:46.330Z,17.89
2023-04-24T04:34:54.637Z,17.85
2023-04-24T04:38:09.774Z,16.76
2023-04-24T04:41:26.427Z,15.66
2023-04-24T04:44:34.433Z,14.81
2023-04-24T04:47:43.560Z,15.26
2023-04-24T04:50:50.946Z,15.63
2023-04-24T04:53:57.450Z,15.15
2023-04-24T04:57:05.062Z,16.08
2023-04-24T05:00:15.138Z,16.94
2023-04-24T05:03:31.362Z,17.22
2023-04-24T05:06:42.824Z,17.65
2023-04-24T05:09:49.654Z,18.34
2023-04-24T05:12:55.772Z,19.89
2023-04-24T05:16:09.468Z,19.50
2023-04-24T05:19:34.217Z,20.15
2023-04-24T05:22:41.385Z,18.65
2023-04-24T05:25:52.545Z,17.93
2023-04-24T05:29:01.524Z,18.78
2023-04-24T05:32:19.983Z,18.67
2023-04-24T05:35:29.633Z,18.36
2023-04-24T05:38:35.951Z,17.66
2023-04-24T05:41:42.759Z,16.71
2023-04-24T05:44:49.182Z,16.01
2023-04-24T05:47:57.108Z,15.31
2023-04-24T05:51:06.505Z,15.85
2023-04-24T05:54:13.529Z,14.13
2023-04-24T05:57:20.467Z,14.50
2023-04-24T06:00:59.876Z,13.88
2023-04-24T06:04:07.157Z,13.90
2023-04-24T06:07:17.109Z,13.22
2023-04-24T06:10:23.728Z,13.20
2023-04-24T06:13:30.883Z,13.01
2023-04-24T06:16:55.930Z,12.68
2023-04-24T06:20:14.166Z,12.62
2023-04-24T06:23:22.947Z,12.63
2023-04-24T06:26:30.634Z,12.32
2023-04-24T06:29:38.178Z,12.24
2023-04-24T06:32:58.649Z,11.90
2023-04-24T06:36:09.533Z,11.31
2023-04-24T06:39:18.917Z,11.20
2023-04-24T06:42:26.036Z,11.75
2023-04-24T06:45:33.041Z,11.40
2023-04-24T06:48:39.653Z,12.24
2023-04-24T06:51:47.066Z,11.61
2023-04-24T06:54:55.580Z,12.15
2023-04-24T06:58:08.216Z,11.92
2023-04-24T07:01:14.566Z,12.13
2023-04-24T07:04:22.360Z,11.77
2023-04-24T07:07:28.930Z,10.66
2023-04-24T07:10:38.717Z,10.28
2023-04-24T07:13:45.517Z,10.32
2023-04-24T07:16:53.158Z,9.71
2023-04-24T07:19:59.306Z,10.30
2023-04-24T07:23:06.946Z,10.04
2023-04-24T07:26:16.233Z,9.84
2023-04-24T07:29:24.904Z,9.60
2023-04-24T07:32:32.893Z,10.55
2023-04-24T07:35:39.753Z,9.19
2023-04-24T07:38:46.125Z,9.42
2023-04-24T07:41:55.430Z,9.27
2023-04-24T07:45:01.587Z,9.06
2023-04-24T07:48:10.303Z,9.50
2023-04-24T07:51:16.464Z,9.42
2023-04-24T07:54:23.407Z,9.03
2023-04-24T07:57:32.596Z,10.27
2023-04-24T08:00:40.594Z,11.56
2023-04-24T08:03:46.829Z,10.29
2023-04-24T08:06:53.837Z,9.27
2023-04-24T08:10:00.677Z,8.84
2023-04-24T08:13:10.338Z,9.68
2023-04-24T08:16:16.755Z,8.20
2023-04-24T08:19:23.574Z,8.38
2023-04-24T08:22:29.468Z,8.81
2023-04-24T08:25:36.641Z,8.53
2023-04-24T08:28:45.342Z,8.10
2023-04-24T08:31:52.176Z,8.45
2023-04-24T08:34:58.103Z,7.97
2023-04-24T08:38:05.144Z,8.14
2023-04-24T08:41:13.769Z,7.80
2023-04-24T08:44:24.548Z,7.95
2023-04-24T08:47:33.511Z,8.56
2023-04-24T08:50:44.011Z,8.71
2023-04-24T08:53:51.430Z,8.27
2023-04-24T08:57:05.002Z,8.50
2023-04-24T09:00:15.952Z,8.70
2023-04-24T09:03:25.577Z,8.42
2023-04-24T09:06:33.427Z,8.78
2023-04-24T09:09:43.521Z,8.56
2023-04-24T09:12:51.016Z,8.96
2023-04-24T09:16:01.948Z,8.58
2023-04-24T09:19:08.005Z,8.25
2023-04-24T09:22:16.346Z,8.90
2023-04-24T09:25:22.964Z,8.76
2023-04-24T09:28:36.378Z,8.37
2023-04-24T09:31:45.030Z,7.72
2023-04-24T09:34:52.920Z,7.25
2023-04-24T09:38:02.403Z,6.95
2023-04-24T09:41:12.560Z,7.79
2023-04-24T09:44:22.196Z,7.54
2023-04-24T09:47:32.044Z,7.81
2023-04-24T09:50:38.659Z,7.51
2023-04-24T09:53:51.206Z,8.25
2023-04-24T09:57:04.078Z,8.28
2023-04-24T10:00:14.244Z,8.32
2023-04-24T10:03:23.679Z,8.07
2023-04-24T10:06:37.476Z,7.84
2023-04-24T10:09:43.724Z,7.73
2023-04-24T10:12:52.183Z,8.01
2023-04-24T10:16:00.289Z,8.38
2023-04-24T10:19:10.979Z,10.10
2023-04-24T10:22:19.810Z,14.25
2023-04-24T10:25:29.952Z,12.65
2023-04-24T10:28:39.563Z,9.52
2023-04-24T10:31:48.383Z,9.41
2023-04-24T10:34:57.929Z,10.57
2023-04-24T10:38:13.140Z,10.11
2023-04-24T10:41:24.511Z,9.52
2023-04-24T10:44:41.177Z,9.19
2023-04-24T10:47:47.365Z,9.23
2023-04-24T10:50:57.824Z,9.57
2023-04-24T10:54:03.642Z,9.55
2023-04-24T10:57:32.907Z,9.94
2023-04-24T11:00:42.406Z,8.91
2023-04-24T11:04:00.776Z,8.63
2023-04-24T11:07:09.920Z,8.91
2023-04-24T11:10:30.379Z,8.87
2023-04-24T11:14:14.315Z,9.39
2023-04-24T11:17:34.833Z,9.79
2023-04-24T11:20:45.894Z,9.69
2023-04-24T11:23:55.385Z,9.91
2023-04-24T11:27:09.211Z,10.30
2023-04-24T11:30:21.612Z,10.38
2023-04-24T11:33:37.656Z,11.12
2023-04-24T11:36:51.358Z,10.46
2023-04-24T11:40:03.245Z,10.40
2023-04-24T11:43:11.148Z,10.28
2023-04-24T11:46:21.281Z,10.06
2023-04-24T11:49:28.906Z,10.42
2023-04-24T11:52:36.562Z,10.44
2023-04-24T11:55:48.226Z,10.58
2023-04-24T11:58:57.426Z,10.78
2023-04-24T12:02:04.421Z,10.36
2023-04-24T12:05:13.416Z,11.05
2023-04-24T12:08:33.003Z,10.25
2023-04-24T12:11:58.206Z,10.42
2023-04-24T12:15:15.465Z,9.45
2023-04-24T12:18:21.518Z,9.59
2023-04-24T12:21:31.649Z,9.80
2023-04-24T12:25:04.935Z,9.36
2023-04-24T12:28:17.666Z,8.64
2023-04-24T12:31:26.378Z,8.64
2023-04-24T12:34:35.782Z,7.35
2023-04-24T12:37:45.041Z,7.38
2023-04-24T12:41:08.384Z,7.33
2023-04-24T12:44:17.886Z,6.98
2023-04-24T12:47:24.631Z,6.59
2023-04-24T12:50:30.509Z,6.93
2023-04-24T12:53:37.312Z,6.56
2023-04-24T12:56:43.319Z,6.60
2023-04-24T12:59:52.781Z,7.13
2023-04-24T13:02:59.173Z,6.97
2023-04-24T13:06:09.232Z,7.45
2023-04-24T13:09:15.148Z,7.26
2023-04-24T13:12:25.140Z,7.17
2023-04-24T13:15:39.953Z,7.64
2023-04-24T13:18:46.910Z,8.49
2023-04-24T13:21:53.224Z,8.54
2023-04-24T13:25:01.156Z,9.19
2023-04-24T13:28:07.546Z,9.53
2023-04-24T13:31:18.245Z,9.97
2023-04-24T13:34:24.385Z,10.09
2023-04-24T13:37:33.093Z,10.53
2023-04-24T13:40:49.252Z,11.11
2023-04-24T13:43:56.001Z,11.25
2023-04-24T13:47:04.666Z,11.66
2023-04-24T13:50:13.458Z,12.23
2023-04-24T13:53:19.525Z,12.19
2023-04-24T13:56:27.015Z,12.18
2023-04-24T13:59:32.979Z,13.19
2023-04-24T14:02:42.678Z,13.61
2023-04-24T14:05:48.622Z,13.72
2023-04-24T14:08:56.083Z,13.35
2023-04-24T14:12:08.227Z,12.79
2023-04-24T14:15:16.377Z,11.08
2023-04-24T14:18:24.910Z,10.52
2023-04-24T14:21:31.844Z,9.73
2023-04-24T14:24:37.799Z,8.28
2023-04-24T14:27:44.632Z,8.13
2023-04-24T14:30:50.986Z,9.03
2023-04-24T14:34:00.356Z,8.87
2023-04-24T14:37:06.457Z,8.74
2023-04-24T14:40:39.656Z,7.90
2023-04-24T14:43:46.238Z,7.72
2023-04-24T14:46:53.708Z,7.38
2023-04-24T14:50:03.128Z,7.22
2023-04-24T14:53:12.281Z,7.92
2023-04-24T14:56:19.385Z,6.73
2023-04-24T14:59:26.281Z,6.77
2023-04-24T15:02:32.431Z,6.70
2023-04-24T15:05:42.247Z,7.03
2023-04-24T15:08:50.225Z,6.83
2023-04-24T15:11:57.888Z,6.35
2023-04-24T15:15:03.977Z,7.34
2023-04-24T15:18:12.994Z,8.35
2023-04-24T15:21:23.188Z,7.64
2023-04-24T15:24:29.939Z,7.05
2023-04-24T15:27:45.212Z,7.21
2023-04-24T15:30:52.222Z,7.47
2023-04-24T15:34:01.154Z,7.91
2023-04-24T15:37:10.932Z,8.73
2023-04-24T15:40:24.089Z,7.77
2023-04-24T15:43:32.406Z,8.02
2023-04-24T15:46:39.599Z,8.40
2023-04-24T15:49:46.624Z,8.47
2023-04-24T15:52:55.220Z,8.55
2023-04-24T15:56:03.121Z,8.81
2023-04-24T15:59:10.038Z,9.74
2023-04-24T16:02:21.059Z,10.34
2023-04-24T16:05:27.141Z,10.09
2023-04-24T16:08:36.589Z,10.12
2023-04-24T16:11:43.163Z,10.00
2023-04-24T16:14:49.956Z,10.11
2023-04-24T16:17:55.975Z,10.54
2023-04-24T16:21:02.884Z,11.12
2023-04-24T16:24:11.993Z,11.00
2023-04-24T16:27:19.311Z,10.96
2023-04-24T16:30:25.496Z,11.33
2023-04-24T16:33:32.405Z,11.09
2023-04-24T16:36:39.286Z,11.48
2023-04-24T16:39:48.881Z,12.29
2023-04-24T16:43:01.798Z,12.39
2023-04-24T16:46:15.424Z,12.70
2023-04-24T16:49:21.486Z,12.10
2023-04-24T16:52:28.273Z,12.54
2023-04-24T16:55:36.848Z,13.95
2023-04-24T16:58:43.663Z,12.60
2023-04-24T17:01:50.158Z,13.94
2023-04-24T17:04:57.086Z,12.66
2023-04-24T17:08:03.122Z,12.20
2023-04-24T17:11:12.525Z,14.76
2023-04-24T17:14:18.427Z,23.86
2023-04-24T17:17:26.227Z,26.92
2023-04-24T17:20:32.287Z,23.71
2023-04-24T17:23:39.774Z,16.99
2023-04-24T17:26:48.422Z,14.91
2023-04-24T17:29:56.330Z,15.25
2023-04-24T17:33:02.347Z,15.35
2023-04-24T17:36:24.749Z,15.55
2023-04-24T17:39:31.567Z,15.37
2023-04-24T17:42:44.335Z,16.00
2023-04-24T17:45:53.238Z,17.88
2023-04-24T17:49:00.248Z,19.31
2023-04-24T17:52:08.001Z,19.58
2023-04-24T17:55:15.380Z,20.41
2023-04-24T17:58:24.103Z,19.83
2023-04-24T18:01:31.175Z,22.58
2023-04-24T18:04:39.434Z,19.98
2023-04-24T18:07:46.262Z,18.57
2023-04-24T18:10:53.128Z,21.38
2023-04-24T18:14:12.932Z,28.05
2023-04-24T18:17:28.883Z,26.61
2023-04-24T18:20:47.021Z,24.04
2023-04-24T18:23:55.525Z,23.44
2023-04-24T18:27:02.579Z,24.27
2023-04-24T18:30:16.741Z,24.23
2023-04-24T18:33:23.682Z,25.52
2023-04-24T18:36:29.545Z,27.74
2023-04-24T18:39:37.160Z,27.93
2023-04-24T18:42:43.756Z,28.41
2023-04-24T18:45:53.236Z,29.87
2023-04-24T18:49:04.931Z,30.25
2023-04-24T18:52:11.836Z,30.25
2023-04-24T18:55:17.809Z,32.37
2023-04-24T18:58:24.725Z,37.94
2023-04-24T19:01:35.092Z,38.37
2023-04-24T19:04:48.771Z,42.14
2023-04-24T19:08:00.590Z,36.75
2023-04-24T19:11:09.632Z,36.15
2023-04-24T19:14:17.650Z,35.79
2023-04-24T19:17:27.047Z,35.93
2023-04-24T19:20:34.276Z,36.40
2023-04-24T19:23:41.666Z,36.65
2023-04-24T19:26:47.849Z,36.88
2023-04-24T19:29:55.103Z,36.81
2023-04-24T19:33:03.654Z,37.48
2023-04-24T19:36:11.025Z,38.28
2023-04-24T19:39:17.170Z,39.10
2023-04-24T19:42:36.336Z,37.07
2023-04-24T19:45:51.003Z,36.73
2023-04-24T19:49:00.711Z,35.19
2023-04-24T19:52:09.590Z,34.99
2023-04-24T19:55:22.744Z,35.52
2023-04-24T19:58:36.911Z,35.34
2023-04-24T20:01:51.236Z,35.39
2023-04-24T20:05:00.246Z,36.34
2023-04-24T20:08:11.394Z,37.36
2023-04-24T20:11:18.189Z,37.00
2023-04-24T20:14:25.385Z,38.11
2023-04-24T20:17:31.624Z,37.39
2023-04-24T20:20:41.960Z,37.09
2023-04-24T20:23:47.922Z,37.52
2023-04-24T20:26:56.714Z,37.96
2023-04-24T20:30:05.338Z,37.59
2023-04-24T20:33:12.414Z,35.86
2023-04-24T20:36:24.670Z,37.23
2023-04-24T20:39:31.695Z,37.10
2023-04-24T20:42:38.577Z,34.54
2023-04-24T20:45:45.386Z,31.92
2023-04-24T20:48:52.402Z,31.30
2023-04-24T20:52:02.211Z,29.15
2023-04-24T20:55:23.057Z,24.97
2023-04-24T20:58:30.357Z,21.77
2023-04-24T21:01:44.700Z,20.69
2023-04-24T21:04:51.585Z,17.62
2023-04-24T21:08:00.268Z,16.60
2023-04-24T21:11:07.202Z,16.30
2023-04-24T21:14:13.216Z,15.33
2023-04-24T21:17:20.065Z,15.37
2023-04-24T21:20:33.533Z,14.98
2023-04-24T21:23:43.292Z,15.40
2023-04-24T21:26:52.300Z,14.58
2023-04-24T21:29:59.224Z,16.99
2023-04-24T21:33:06.556Z,17.70
2023-04-24T21:36:13.964Z,12.80
2023-04-24T21:39:22.762Z,12.64
2023-04-24T21:42:29.625Z,12.78
2023-04-24T21:45:35.666Z,12.02
2023-04-24T21:48:42.448Z,12.04
2023-04-24T21:51:48.387Z,11.00
2023-04-24T21:54:59.549Z,10.49
2023-04-24T21:58:05.789Z,11.14
2023-04-24T22:01:15.849Z,11.16
2023-04-24T22:04:22.706Z,10.44
2023-04-24T22:07:29.715Z,10.02
2023-04-24T22:10:38.307Z,9.29
2023-04-24T22:13:45.156Z,9.19
2023-04-24T22:16:51.122Z,43.73
2023-04-24T22:19:57.784Z,12.27
2023-04-24T22:23:04.136Z,9.46
2023-04-24T22:26:13.481Z,9.32
2023-04-24T22:29:19.310Z,9.58
2023-04-24T22:32:26.123Z,9.65
2023-04-24T22:35:32.067Z,10.02
2023-04-24T22:38:38.782Z,9.87
2023-04-24T22:41:47.589Z,10.21
2023-04-24T22:44:54.914Z,10.21
2023-04-24T22:48:01.003Z,9.90
2023-04-24T22:51:08.277Z,9.35
2023-04-24T22:54:14.259Z,9.35
2023-04-24T22:57:23.960Z,9.59
2023-04-24T23:00:30.035Z,10.34
2023-04-24T23:03:37.013Z,11.00
2023-04-24T23:06:48.786Z,11.76
2023-04-24T23:09:55.522Z,12.04
2023-04-24T23:13:04.512Z,13.53
2023-04-24T23:16:12.945Z,13.90
2023-04-24T23:19:18.754Z,14.90
2023-04-24T23:22:25.565Z,15.30
2023-04-24T23:25:33.131Z,15.24
2023-04-24T23:28:42.851Z,15.31
2023-04-24T23:31:48.761Z,15.04
2023-04-24T23:34:56.560Z,15.43
2023-04-24T23:38:02.690Z,15.44
2023-04-24T23:41:20.212Z,14.39
2023-04-24T23:44:28.947Z,15.10
2023-04-24T23:47:37.964Z,14.43
2023-04-24T23:50:44.570Z,14.48
2023-04-24T23:53:59.969Z,14.67
2023-04-24T23:57:22.364Z,15.09
